createdAt,value
2023-05-12T00:01:24.911Z,13.38
2023-05-12T00:03:54.394Z,13.35
2023-05-12T00:06:21.564Z,13.42
2023-05-12T00:08:48.596Z,13.34
2023-05-12T00:11:15.676Z,13.34
2023-05-12T00:13:42.708Z,13.32
2023-05-12T00:16:10.029Z,13.32
2023-05-12T00:18:37.040Z,13.25
2023-05-12T00:21:04.035Z,13.20
2023-05-12T00:23:33.361Z,13.14
2023-05-12T00:26:00.310Z,13.27
2023-05-12T00:28:29.657Z,13.14
2023-05-12T00:31:02.887Z,13.13
2023-05-12T00:33:31.264Z,12.97
2023-05-12T00:36:01.265Z,13.22
2023-05-12T00:38:28.134Z,13.05
2023-05-12T00:40:55.069Z,13.20
2023-05-12T00:43:21.946Z,13.19
2023-05-12T00:45:48.998Z,13.07
2023-05-12T00:48:15.728Z,13.14
2023-05-12T00:50:45.070Z,13.06
2023-05-12T00:53:13.334Z,13.11
2023-05-12T00:55:40.082Z,13.08
2023-05-12T00:58:07.351Z,13.07
2023-05-12T01:00:34.131Z,13.07
2023-05-12T01:03:01.009Z,12.96
2023-05-12T01:05:32.071Z,13.02
2023-05-12T01:08:01.272Z,13.01
2023-05-12T01:10:28.287Z,12.93
2023-05-12T01:12:57.144Z,12.95
2023-05-12T01:15:24.009Z,12.93
2023-05-12T01:17:57.635Z,12.92
2023-05-12T01:20:27.099Z,12.91
2023-05-12T01:22:55.273Z,12.89
2023-05-12T01:25:27.064Z,12.78
2023-05-12T01:27:54.509Z,12.78
2023-05-12T01:30:21.983Z,12.74
2023-05-12T01:32:52.259Z,12.77
2023-05-12T01:35:19.151Z,12.74
2023-05-12T01:37:48.317Z,12.67
2023-05-12T01:40:15.379Z,12.70
2023-05-12T01:42:43.055Z,12.71
2023-05-12T01:45:10.588Z,12.63
2023-05-12T01:47:37.491Z,12.69
2023-05-12T01:50:04.552Z,12.68
2023-05-12T01:52:33.523Z,12.69
2023-05-12T01:55:02.428Z,12.65
2023-05-12T01:57:29.297Z,12.64
2023-05-12T01:59:56.274Z,12.65
2023-05-12T02:02:23.013Z,12.65
2023-05-12T02:04:52.208Z,12.58
2023-05-12T02:07:18.938Z,12.56
2023-05-12T02:09:45.934Z,12.61
2023-05-12T02:12:15.569Z,12.59
2023-05-12T02:14:42.401Z,12.50
2023-05-12T02:17:09.455Z,12.56
2023-05-12T02:19:36.188Z,11.71
2023-05-12T02:22:03.017Z,12.45
2023-05-12T02:24:29.853Z,12.54
2023-05-12T02:26:56.740Z,12.50
2023-05-12T02:29:23.439Z,12.53
2023-05-12T02:31:52.605Z,12.48
2023-05-12T02:34:19.449Z,12.50
2023-05-12T02:36:46.303Z,12.49
2023-05-12T02:39:13.589Z,12.49
2023-05-12T02:41:40.336Z,12.48
2023-05-12T02:44:07.110Z,12.32
2023-05-12T02:46:33.851Z,12.47
2023-05-12T02:49:00.735Z,12.42
2023-05-12T02:51:32.336Z,12.43
2023-05-12T02:53:59.080Z,12.42
2023-05-12T02:56:26.343Z,12.46
2023-05-12T02:58:55.536Z,12.42
2023-05-12T03:01:24.549Z,12.39
2023-05-12T03:03:51.415Z,12.40
2023-05-12T03:06:18.300Z,12.33
2023-05-12T03:08:45.048Z,12.36
2023-05-12T03:11:12.091Z,12.28
2023-05-12T03:13:38.805Z,12.30
2023-05-12T03:16:05.940Z,12.32
2023-05-12T03:18:32.658Z,12.32
2023-05-12T03:20:59.512Z,12.33
2023-05-12T03:23:26.811Z,12.28
2023-05-12T03:25:55.862Z,12.34
2023-05-12T03:28:24.915Z,12.32
2023-05-12T03:30:51.697Z,12.32
2023-05-12T03:33:20.899Z,12.33
2023-05-12T03:35:47.899Z,12.31
2023-05-12T03:38:14.588Z,12.33
2023-05-12T03:40:41.378Z,12.25
2023-05-12T03:43:08.132Z,12.27
2023-05-12T03:45:35.021Z,12.23
2023-05-12T03:48:01.743Z,12.25
2023-05-12T03:50:28.381Z,12.33
2023-05-12T03:52:56.229Z,12.31
2023-05-12T03:55:23.010Z,12.30
2023-05-12T03:57:50.235Z,12.33
2023-05-12T04:00:17.737Z,12.31
2023-05-12T04:02:47.562Z,12.31
2023-05-12T04:05:14.771Z,12.32
2023-05-12T04:07:41.477Z,12.32
2023-05-12T04:10:08.883Z,12.31
2023-05-12T04:12:35.511Z,12.35
2023-05-12T04:15:02.902Z,12.34
2023-05-12T04:17:32.097Z,12.32
2023-05-12T04:19:58.897Z,12.31
2023-05-12T04:22:27.765Z,12.33
2023-05-12T04:24:54.391Z,12.35
2023-05-12T04:27:21.271Z,12.32
2023-05-12T04:29:48.152Z,12.33
2023-05-12T04:32:14.970Z,12.34
2023-05-12T04:34:42.068Z,12.34
2023-05-12T04:37:09.090Z,12.28
2023-05-12T04:39:35.866Z,12.34
2023-05-12T04:42:02.791Z,12.31
2023-05-12T04:44:32.703Z,12.33
2023-05-12T04:47:02.434Z,12.35
2023-05-12T04:49:31.949Z,12.36
2023-05-12T04:51:58.676Z,12.37
2023-05-12T04:54:27.911Z,12.38
2023-05-12T04:56:56.871Z,12.40
2023-05-12T04:59:24.065Z,12.40
2023-05-12T05:01:51.382Z,12.43
2023-05-12T05:04:21.021Z,12.44
2023-05-12T05:06:48.125Z,12.33
2023-05-12T05:09:14.947Z,12.49
2023-05-12T05:11:42.071Z,12.50
2023-05-12T05:14:08.752Z,12.52
2023-05-12T05:16:35.749Z,12.54
2023-05-12T05:19:06.466Z,12.55
2023-05-12T05:21:36.109Z,12.57
2023-05-12T05:24:02.851Z,12.62
2023-05-12T05:26:31.619Z,12.67
2023-05-12T05:28:58.517Z,12.64
2023-05-12T05:31:26.013Z,12.71
2023-05-12T05:33:52.844Z,12.75
2023-05-12T05:36:28.883Z,12.79
2023-05-12T05:38:57.263Z,12.84
2023-05-12T05:41:26.208Z,12.84
2023-05-12T05:43:52.865Z,12.88
2023-05-12T05:46:19.668Z,12.98
2023-05-12T05:48:46.660Z,12.99
2023-05-12T05:51:13.303Z,12.94
2023-05-12T05:53:40.073Z,12.77
2023-05-12T05:56:07.010Z,13.13
2023-05-12T05:58:34.107Z,13.20
2023-05-12T06:01:03.659Z,13.23
2023-05-12T06:03:30.569Z,13.30
2023-05-12T06:05:59.692Z,13.46
2023-05-12T06:08:26.410Z,13.56
2023-05-12T06:10:53.182Z,13.82
2023-05-12T06:13:21.157Z,14.28
2023-05-12T06:15:47.908Z,14.51
2023-05-12T06:18:14.534Z,14.58
2023-05-12T06:20:41.275Z,14.76
2023-05-12T06:23:08.311Z,15.63
2023-05-12T06:25:35.396Z,16.76
2023-05-12T06:28:02.219Z,17.28
2023-05-12T06:30:31.573Z,17.76
2023-05-12T06:32:58.397Z,19.04
2023-05-12T06:35:27.770Z,19.27
2023-05-12T06:37:54.716Z,19.89
2023-05-12T06:40:27.107Z,18.89
2023-05-12T06:42:54.180Z,18.24
2023-05-12T06:45:21.472Z,18.02
2023-05-12T06:47:48.863Z,17.26
2023-05-12T06:50:17.669Z,16.72
2023-05-12T06:52:44.929Z,16.47
2023-05-12T06:55:11.631Z,16.43
2023-05-12T06:57:38.518Z,16.52
2023-05-12T07:00:05.976Z,16.45
2023-05-12T07:02:33.035Z,16.42
2023-05-12T07:04:59.696Z,16.23
2023-05-12T07:07:28.843Z,16.27
2023-05-12T07:09:58.257Z,16.22
2023-05-12T07:12:25.447Z,16.51
2023-05-12T07:14:55.096Z,16.48
2023-05-12T07:20:05.161Z,17.05
2023-05-12T07:22:32.695Z,16.89
2023-05-12T07:25:00.244Z,16.80
2023-05-12T07:27:29.066Z,17.51
2023-05-12T07:29:55.781Z,17.38
2023-05-12T07:32:23.561Z,18.32
2023-05-12T07:34:53.469Z,18.50
2023-05-12T07:37:20.177Z,18.86
2023-05-12T07:39:47.190Z,20.49
2023-05-12T07:42:16.012Z,19.98
2023-05-12T07:44:42.829Z,21.67
2023-05-12T07:47:11.626Z,21.75
2023-05-12T07:49:38.287Z,22.71
2023-05-12T07:52:05.607Z,23.01
2023-05-12T07:54:32.321Z,21.88
2023-05-12T07:56:59.177Z,22.39
2023-05-12T07:59:26.070Z,21.67
2023-05-12T08:01:54.196Z,22.71
2023-05-12T08:04:20.925Z,22.92
2023-05-12T08:06:50.555Z,24.10
2023-05-12T08:09:20.464Z,24.53
2023-05-12T08:11:51.566Z,24.12
2023-05-12T08:14:18.761Z,22.04
2023-05-12T08:16:46.553Z,23.10
2023-05-12T08:19:14.019Z,24.35
2023-05-12T08:21:40.736Z,24.90
2023-05-12T08:24:09.588Z,24.87
2023-05-12T08:26:36.146Z,23.62
2023-05-12T08:29:02.766Z,23.51
2023-05-12T08:31:29.599Z,22.14
2023-05-12T08:34:09.024Z,21.04
2023-05-12T08:36:39.119Z,21.50
2023-05-12T08:39:08.764Z,21.23
2023-05-12T08:41:52.122Z,20.89
2023-05-12T08:44:19.982Z,21.45
2023-05-12T08:46:48.060Z,21.60
2023-05-12T08:49:18.040Z,21.59
2023-05-12T08:51:54.487Z,22.00
2023-05-12T08:54:26.774Z,21.71
2023-05-12T08:59:26.812Z,22.48
2023-05-12T09:01:57.674Z,23.09
2023-05-12T09:04:24.499Z,24.00
2023-05-12T09:06:53.631Z,24.80
2023-05-12T09:09:21.975Z,24.32
2023-05-12T09:11:53.532Z,23.52
2023-05-12T09:14:25.702Z,22.80
2023-05-12T09:17:00.028Z,21.75
2023-05-12T09:19:26.898Z,21.92
2023-05-12T09:21:53.690Z,21.80
2023-05-12T09:24:21.097Z,22.14
2023-05-12T09:26:56.211Z,22.04
2023-05-12T09:29:31.197Z,22.26
2023-05-12T09:32:01.855Z,22.31
2023-05-12T09:34:30.714Z,22.26
2023-05-12T09:36:58.923Z,21.99
2023-05-12T09:39:29.091Z,22.10
2023-05-12T09:41:55.827Z,22.14
2023-05-12T09:44:24.090Z,22.01
2023-05-12T09:46:51.528Z,21.84
2023-05-12T09:49:27.462Z,21.65
2023-05-12T09:51:58.726Z,21.45
2023-05-12T09:54:30.313Z,21.45
2023-05-12T09:57:03.966Z,21.78
2023-05-12T09:59:32.889Z,21.68
2023-05-12T10:02:05.528Z,21.78
2023-05-12T10:04:45.527Z,21.96
2023-05-12T10:07:14.454Z,22.13
2023-05-12T10:09:42.925Z,21.90
2023-05-12T10:12:13.557Z,21.54
2023-05-12T10:14:41.276Z,21.42
2023-05-12T10:17:09.779Z,21.31
2023-05-12T10:19:41.125Z,21.23
2023-05-12T10:22:13.167Z,21.33
2023-05-12T10:24:41.746Z,21.47
2023-05-12T10:27:08.428Z,21.80
2023-05-12T10:29:37.156Z,21.67
2023-05-12T10:32:04.167Z,21.87
2023-05-12T10:34:33.744Z,21.78
2023-05-12T10:37:00.630Z,22.02
2023-05-12T10:39:32.934Z,21.75
2023-05-12T10:42:06.657Z,21.72
2023-05-12T10:44:33.391Z,21.56
2023-05-12T10:47:00.166Z,21.40
2023-05-12T10:49:40.424Z,21.47
2023-05-12T10:52:08.084Z,21.59
2023-05-12T10:54:41.430Z,21.60
2023-05-12T10:57:15.890Z,21.58
2023-05-12T10:59:49.871Z,21.50
2023-05-12T11:02:19.728Z,21.34
2023-05-12T11:04:53.647Z,21.14
2023-05-12T11:07:31.327Z,21.10
2023-05-12T11:10:04.743Z,20.98
2023-05-12T11:12:37.359Z,20.94
2023-05-12T11:15:05.854Z,20.74
2023-05-12T11:17:38.959Z,20.36
2023-05-12T11:20:12.046Z,20.42
2023-05-12T11:22:41.483Z,20.36
2023-05-12T11:25:12.438Z,20.30
2023-05-12T11:27:42.436Z,20.24
2023-05-12T11:30:11.024Z,20.27
2023-05-12T11:32:43.338Z,20.39
2023-05-12T11:35:11.493Z,20.66
2023-05-12T11:37:41.889Z,20.69
2023-05-12T11:40:15.916Z,20.58
2023-05-12T11:42:46.323Z,20.52
2023-05-12T11:45:23.115Z,20.90
2023-05-12T11:47:50.143Z,21.14
2023-05-12T11:50:26.307Z,21.41
2023-05-12T11:52:55.821Z,21.55
2023-05-12T11:55:26.789Z,21.63
2023-05-12T11:58:01.355Z,21.83
2023-05-12T12:00:30.171Z,21.81
2023-05-12T12:03:13.004Z,22.01
2023-05-12T12:05:41.977Z,22.37
2023-05-12T12:08:17.464Z,22.38
2023-05-12T12:10:47.289Z,22.24
2023-05-12T12:13:25.795Z,22.59
2023-05-12T12:15:52.962Z,22.83
2023-05-12T12:18:19.828Z,22.85
2023-05-12T12:20:52.299Z,23.15
2023-05-12T12:23:18.908Z,23.48
2023-05-12T12:25:45.519Z,23.53
2023-05-12T12:28:13.123Z,23.23
2023-05-12T12:30:39.764Z,23.17
2023-05-12T12:33:08.655Z,23.31
2023-05-12T12:35:37.559Z,23.45
2023-05-12T12:38:04.687Z,23.46
2023-05-12T12:40:31.291Z,23.62
2023-05-12T12:42:57.849Z,23.50
2023-05-12T12:45:24.910Z,23.63
2023-05-12T12:47:54.770Z,23.43
2023-05-12T12:50:25.135Z,23.74
2023-05-12T12:52:53.843Z,23.50
2023-05-12T12:55:23.257Z,23.60
2023-05-12T12:57:50.031Z,23.37
2023-05-12T13:00:19.508Z,23.37
2023-05-12T13:02:49.692Z,23.10
2023-05-12T13:05:16.692Z,22.98
2023-05-12T13:07:45.658Z,22.83
2023-05-12T13:10:14.618Z,22.62
2023-05-12T13:12:41.381Z,22.62
2023-05-12T13:15:08.605Z,22.58
2023-05-12T13:17:35.308Z,22.70
2023-05-12T13:20:04.811Z,22.61
2023-05-12T13:22:31.782Z,22.39
2023-05-12T13:24:58.424Z,22.97
2023-05-12T13:27:25.385Z,22.86
2023-05-12T13:29:52.259Z,22.86
2023-05-12T13:32:22.376Z,22.81
2023-05-12T13:34:51.735Z,22.69
2023-05-12T13:37:20.931Z,22.44
2023-05-12T13:39:49.765Z,22.35
2023-05-12T13:42:17.163Z,22.39
2023-05-12T13:44:46.129Z,22.54
2023-05-12T13:47:12.948Z,22.75
2023-05-12T13:49:39.552Z,22.77
2023-05-12T13:52:09.121Z,22.88
2023-05-12T13:54:35.755Z,22.95
2023-05-12T13:57:06.172Z,23.05
2023-05-12T13:59:32.855Z,22.84
2023-05-12T14:01:59.668Z,22.99
2023-05-12T14:04:26.664Z,23.07
2023-05-12T14:06:55.708Z,23.20
2023-05-12T14:09:22.752Z,23.31
2023-05-12T14:11:49.358Z,23.28
2023-05-12T14:14:16.021Z,23.16
2023-05-12T14:16:42.658Z,23.00
2023-05-12T14:19:12.137Z,22.98
2023-05-12T14:21:41.075Z,22.89
2023-05-12T14:24:08.849Z,22.69
2023-05-12T14:26:40.183Z,22.68
2023-05-12T14:29:08.773Z,22.71
2023-05-12T14:31:35.653Z,22.74
2023-05-12T14:34:09.239Z,22.53
2023-05-12T14:36:35.980Z,22.39
2023-05-12T14:39:02.588Z,22.40
2023-05-12T14:41:32.269Z,22.45
2023-05-12T14:43:58.906Z,22.54
2023-05-12T14:46:25.897Z,22.58
2023-05-12T14:48:52.829Z,22.77
2023-05-12T14:51:19.462Z,22.80
2023-05-12T14:53:46.271Z,22.87
2023-05-12T14:56:15.591Z,22.82
2023-05-12T14:58:42.171Z,22.57
2023-05-12T15:01:09.704Z,22.58
2023-05-12T15:03:36.426Z,22.51
2023-05-12T15:06:07.134Z,22.58
2023-05-12T15:08:36.857Z,22.58
2023-05-12T15:11:05.807Z,22.57
2023-05-12T15:13:34.764Z,22.73
2023-05-12T15:16:04.757Z,22.71
2023-05-12T15:18:31.459Z,22.65
2023-05-12T15:20:58.066Z,22.71
2023-05-12T15:23:24.676Z,22.57
2023-05-12T15:25:51.435Z,22.72
2023-05-12T15:28:18.826Z,22.87
2023-05-12T15:30:53.792Z,22.87
2023-05-12T15:33:21.217Z,22.86
2023-05-12T15:35:47.818Z,22.80
2023-05-12T15:38:14.543Z,22.75
2023-05-12T15:40:41.375Z,22.80
2023-05-12T15:43:10.437Z,22.87
2023-05-12T15:45:37.429Z,22.90
2023-05-12T15:48:09.347Z,22.87
2023-05-12T15:50:38.701Z,22.92
2023-05-12T15:53:07.761Z,23.15
2023-05-12T15:55:34.461Z,23.32
2023-05-12T15:58:01.534Z,23.49
2023-05-12T16:00:28.310Z,23.60
2023-05-12T16:02:55.128Z,23.67
2023-05-12T16:05:24.117Z,23.93
2023-05-12T16:07:55.213Z,23.89
2023-05-12T16:10:22.254Z,23.71
2023-05-12T16:12:51.341Z,23.59
2023-05-12T16:15:18.792Z,23.23
2023-05-12T16:17:45.849Z,22.52
2023-05-12T16:20:12.923Z,21.46
2023-05-12T16:22:40.569Z,20.99
2023-05-12T16:25:10.287Z,20.32
2023-05-12T16:27:37.212Z,19.57
2023-05-12T16:30:04.187Z,19.36
2023-05-12T16:32:32.133Z,19.25
2023-05-12T16:34:58.994Z,19.09
2023-05-12T16:37:26.529Z,18.83
2023-05-12T16:39:53.356Z,18.66
2023-05-12T16:42:20.906Z,18.69
2023-05-12T16:44:48.048Z,18.75
2023-05-12T16:47:14.866Z,18.86
2023-05-12T16:49:41.486Z,18.92
2023-05-12T16:52:12.331Z,18.99
2023-05-12T16:54:39.148Z,18.95
2023-05-12T16:57:06.077Z,18.98
2023-05-12T16:59:33.059Z,18.97
2023-05-12T17:02:00.258Z,18.93
2023-05-12T17:04:27.272Z,18.89
2023-05-12T17:06:53.913Z,18.87
2023-05-12T17:09:21.120Z,18.80
2023-05-12T17:11:47.819Z,18.69
2023-05-12T17:14:16.250Z,18.68
2023-05-12T17:16:49.421Z,18.64
2023-05-12T17:19:16.129Z,18.62
2023-05-12T17:21:42.878Z,18.64
2023-05-12T17:24:11.948Z,18.62
2023-05-12T17:26:38.669Z,18.63
2023-05-12T17:29:05.817Z,18.62
2023-05-12T17:31:32.457Z,18.58
2023-05-12T17:33:59.167Z,18.51
2023-05-12T17:36:26.112Z,18.56
2023-05-12T17:38:52.826Z,18.35
2023-05-12T17:41:19.442Z,18.56
2023-05-12T17:43:47.035Z,18.57
2023-05-12T17:46:17.307Z,18.53
2023-05-12T17:48:43.929Z,18.44
2023-05-12T17:51:13.661Z,18.46
2023-05-12T17:53:40.315Z,18.37
2023-05-12T17:56:07.361Z,18.18
2023-05-12T17:58:34.454Z,18.24
2023-05-12T18:01:03.583Z,18.26
2023-05-12T18:03:30.421Z,18.26
2023-05-12T18:05:57.041Z,18.23
2023-05-12T18:08:23.646Z,18.01
2023-05-12T18:10:52.936Z,18.23
2023-05-12T18:13:19.845Z,18.20
2023-05-12T18:15:48.601Z,18.22
2023-05-12T18:18:15.225Z,18.19
2023-05-12T18:20:42.374Z,18.17
2023-05-12T18:23:09.168Z,18.12
2023-05-12T18:25:36.736Z,18.20
2023-05-12T18:28:03.767Z,18.18
2023-05-12T18:30:30.750Z,18.21
2023-05-12T18:32:57.376Z,18.05
2023-05-12T18:35:27.256Z,18.31
2023-05-12T18:37:53.905Z,18.20
2023-05-12T18:40:22.511Z,18.20
2023-05-12T18:42:53.929Z,18.14
2023-05-12T18:45:21.124Z,18.06
2023-05-12T18:47:48.170Z,18.04
2023-05-12T18:50:15.020Z,17.95
2023-05-12T18:52:43.203Z,17.93
2023-05-12T18:55:11.169Z,17.90
2023-05-12T18:57:37.889Z,17.86
2023-05-12T19:00:04.971Z,17.97
2023-05-12T19:02:34.843Z,17.83
2023-05-12T19:05:04.000Z,17.78
2023-05-12T19:07:30.650Z,17.77
2023-05-12T19:09:57.214Z,17.68
2023-05-12T19:12:23.900Z,17.61
2023-05-12T19:14:50.473Z,17.60
2023-05-12T19:17:17.870Z,17.61
2023-05-12T19:19:44.617Z,17.76
2023-05-12T19:22:11.211Z,17.58
2023-05-12T19:24:38.063Z,17.50
2023-05-12T19:27:04.907Z,17.67
2023-05-12T19:29:33.736Z,17.53
2023-05-12T19:32:00.416Z,17.43
2023-05-12T19:34:29.525Z,17.47
2023-05-12T19:36:58.340Z,17.43
2023-05-12T19:39:25.005Z,17.38
2023-05-12T19:41:51.842Z,17.25
2023-05-12T19:44:18.429Z,17.29
2023-05-12T19:46:47.136Z,17.27
2023-05-12T19:49:14.767Z,17.31
2023-05-12T19:51:43.800Z,17.20
2023-05-12T19:54:10.435Z,17.18
2023-05-12T19:56:37.559Z,17.14
2023-05-12T19:59:04.216Z,17.09
2023-05-12T20:01:31.181Z,17.07
2023-05-12T20:03:57.882Z,17.01
2023-05-12T20:06:25.041Z,16.97
2023-05-12T20:08:52.482Z,16.93
2023-05-12T20:11:21.453Z,16.94
2023-05-12T20:13:48.223Z,16.91
2023-05-12T20:16:15.287Z,16.89
2023-05-12T20:18:42.108Z,16.82
2023-05-12T20:21:08.862Z,16.81
2023-05-12T20:23:35.748Z,16.81
2023-05-12T20:26:02.626Z,16.55
2023-05-12T20:28:29.807Z,16.78
2023-05-12T20:30:56.782Z,16.77
2023-05-12T20:33:24.220Z,16.74
2023-05-12T20:35:51.166Z,16.68
2023-05-12T20:38:18.381Z,16.55
2023-05-12T20:40:45.354Z,16.72
2023-05-12T20:43:14.683Z,16.57
2023-05-12T20:45:41.668Z,16.72
2023-05-12T20:48:11.662Z,16.71
2023-05-12T20:50:39.865Z,16.64
2023-05-12T20:53:07.248Z,16.66
2023-05-12T20:55:34.378Z,16.58
2023-05-12T20:58:02.012Z,16.67
2023-05-12T21:00:31.643Z,16.68
2023-05-12T21:02:59.827Z,16.62
2023-05-12T21:05:29.335Z,16.59
2023-05-12T21:07:58.603Z,16.69
2023-05-12T21:10:27.593Z,16.69
2023-05-12T21:12:56.795Z,16.70
2023-05-12T21:15:24.822Z,16.63
2023-05-12T21:17:53.515Z,16.68
2023-05-12T21:20:20.851Z,16.37
2023-05-12T21:22:48.078Z,16.57
2023-05-12T21:25:15.139Z,16.64
2023-05-12T21:27:42.080Z,16.64
2023-05-12T21:30:11.053Z,16.62
2023-05-12T21:32:39.762Z,16.61
2023-05-12T21:35:08.091Z,16.60
2023-05-12T21:37:35.264Z,16.60
2023-05-12T21:40:02.647Z,16.42
2023-05-12T21:42:29.676Z,16.57
2023-05-12T21:44:59.285Z,16.45
2023-05-12T21:47:29.106Z,16.51
2023-05-12T21:50:01.107Z,15.99
2023-05-12T21:52:30.450Z,16.25
2023-05-12T21:54:57.657Z,16.33
2023-05-12T21:57:24.787Z,16.24
2023-05-12T21:59:52.098Z,16.17
2023-05-12T22:02:19.685Z,16.20
2023-05-12T22:04:49.670Z,16.04
2023-05-12T22:07:16.759Z,16.09
2023-05-12T22:09:44.759Z,16.09
2023-05-12T22:12:21.956Z,16.07
2023-05-12T22:14:51.249Z,16.04
2023-05-12T22:17:18.432Z,16.03
2023-05-12T22:19:45.456Z,15.94
2023-05-12T22:22:12.803Z,15.93
2023-05-12T22:24:42.380Z,15.80
2023-05-12T22:27:13.419Z,15.87
2023-05-12T22:29:40.515Z,15.72
2023-05-12T22:32:12.405Z,15.47
2023-05-12T22:34:44.418Z,15.78
2023-05-12T22:37:14.341Z,15.72
2023-05-12T22:39:50.246Z,15.69
2023-05-12T22:42:20.744Z,15.66
2023-05-12T22:44:47.801Z,15.64
2023-05-12T22:47:14.899Z,15.62
2023-05-12T22:49:42.114Z,15.61
2023-05-12T22:52:13.911Z,15.56
2023-05-12T22:54:40.788Z,15.35
2023-05-12T22:57:10.825Z,15.47
2023-05-12T22:59:38.295Z,15.34
2023-05-12T23:02:08.214Z,15.31
2023-05-12T23:04:35.528Z,15.42
2023-05-12T23:07:03.151Z,15.24
2023-05-12T23:09:32.580Z,15.40
2023-05-12T23:12:01.194Z,14.65
2023-05-12T23:14:30.376Z,15.38
2023-05-12T23:17:01.626Z,15.34
2023-05-12T23:19:32.031Z,15.15
2023-05-12T23:21:59.160Z,15.35
2023-05-12T23:24:28.632Z,15.34
2023-05-12T23:26:55.819Z,15.32
2023-05-12T23:29:27.440Z,15.24
2023-05-12T23:31:57.946Z,15.28
2023-05-12T23:34:25.017Z,15.20
2023-05-12T23:36:52.341Z,15.06
2023-05-12T23:39:28.890Z,15.17
2023-05-12T23:41:59.628Z,15.18
2023-05-12T23:44:26.972Z,15.12
2023-05-12T23:46:54.579Z,15.10
2023-05-12T23:49:23.851Z,15.15
2023-05-12T23:51:53.512Z,15.07
2023-05-12T23:54:20.643Z,14.98
2023-05-12T23:56:51.024Z,15.03
2023-05-12T23:59:19.248Z,15.04
